createdAt,value
2022-12-23T00:02:31.252Z,5.95
2022-12-23T00:05:03.856Z,5.59
2022-12-23T00:07:36.489Z,6.40
2022-12-23T00:10:11.050Z,7.28
2022-12-23T00:13:01.025Z,7.84
2022-12-23T00:15:33.623Z,8.24
2022-12-23T00:18:06.273Z,8.57
2022-12-23T00:20:41.699Z,8.85
2022-12-23T00:23:14.214Z,8.96
2022-12-23T00:25:46.954Z,8.79
2022-12-23T00:28:21.259Z,7.79
2022-12-23T00:30:55.407Z,6.79
2022-12-23T00:33:29.220Z,6.02
2022-12-23T00:36:04.226Z,5.67
2022-12-23T00:38:54.281Z,6.45
2022-12-23T00:41:44.317Z,7.29
2022-12-23T00:44:16.831Z,7.79
2022-12-23T00:46:49.397Z,8.06
2022-12-23T00:49:40.205Z,8.26
2022-12-23T00:52:16.769Z,8.42
2022-12-23T00:54:49.212Z,8.45
2022-12-23T00:57:21.718Z,8.52
2022-12-23T00:59:54.293Z,8.61
2022-12-23T01:02:44.092Z,8.90
2022-12-23T01:05:36.268Z,8.96
2022-12-23T01:08:11.357Z,7.82
2022-12-23T01:10:43.839Z,6.82
2022-12-23T01:13:16.346Z,6.06
2022-12-23T01:15:49.197Z,5.64
2022-12-23T01:18:23.588Z,6.20
2022-12-23T01:20:56.201Z,6.89
2022-12-23T01:23:28.803Z,7.37
2022-12-23T01:26:03.690Z,7.73
2022-12-23T01:28:37.226Z,8.13
2022-12-23T01:31:12.854Z,8.53
2022-12-23T01:33:46.103Z,8.71
2022-12-23T01:36:19.458Z,8.67
2022-12-23T01:38:52.281Z,8.92
2022-12-23T01:41:44.979Z,8.99
2022-12-23T01:44:51.664Z,7.93
2022-12-23T01:47:28.428Z,6.73
2022-12-23T01:50:07.648Z,5.96
2022-12-23T01:52:46.038Z,5.56
2022-12-23T01:55:20.274Z,6.14
2022-12-23T01:57:53.757Z,6.87
2022-12-23T02:00:44.066Z,7.45
2022-12-23T02:03:33.956Z,8.18
2022-12-23T02:06:21.337Z,8.76
2022-12-23T02:09:11.030Z,9.13
2022-12-23T02:12:15.796Z,9.13
2022-12-23T02:15:37.147Z,7.82
2022-12-23T02:18:32.471Z,6.55
2022-12-23T02:21:29.203Z,5.72
2022-12-23T02:24:27.785Z,5.39
2022-12-23T02:27:20.297Z,5.96
2022-12-23T02:30:28.170Z,6.38
2022-12-23T02:33:31.559Z,7.06
2022-12-23T02:36:17.641Z,8.11
2022-12-23T02:38:57.966Z,8.78
2022-12-23T02:41:38.208Z,9.23
2022-12-23T02:44:20.214Z,9.26
2022-12-23T02:46:56.983Z,8.18
2022-12-23T02:49:34.866Z,7.08
2022-12-23T02:52:15.688Z,6.24
2022-12-23T02:54:53.113Z,5.61
2022-12-23T02:57:30.794Z,5.32
2022-12-23T03:00:05.189Z,6.24
2022-12-23T03:02:41.169Z,7.39
2022-12-23T03:05:29.324Z,8.13
2022-12-23T03:08:05.355Z,8.76
2022-12-23T03:10:46.363Z,9.14
2022-12-23T03:13:30.415Z,9.19
2022-12-23T03:16:16.155Z,8.08
2022-12-23T03:19:02.579Z,6.91
2022-12-23T03:21:42.680Z,6.04
2022-12-23T03:24:23.388Z,5.75
2022-12-23T03:27:04.692Z,6.85
2022-12-23T03:29:44.111Z,7.91
2022-12-23T03:32:18.377Z,8.55
2022-12-23T03:34:53.622Z,8.94
2022-12-23T03:37:29.182Z,9.17
2022-12-23T03:40:06.124Z,9.17
2022-12-23T03:42:41.296Z,8.18
2022-12-23T03:48:17.371Z,6.22
2022-12-23T03:50:54.126Z,5.64
2022-12-23T03:53:31.047Z,5.49
2022-12-23T03:56:07.969Z,6.64
2022-12-23T03:58:44.418Z,7.73
2022-12-23T04:01:27.273Z,8.33
2022-12-23T04:04:08.118Z,8.81
2022-12-23T04:06:46.775Z,9.14
2022-12-23T04:09:22.357Z,9.31
2022-12-23T04:11:56.372Z,9.21
2022-12-23T04:14:28.856Z,8.18
2022-12-23T04:17:01.676Z,7.16
2022-12-23T04:19:34.196Z,6.38
2022-12-23T04:22:06.743Z,5.77
2022-12-23T04:24:39.357Z,5.57
2022-12-23T04:27:14.846Z,6.64
2022-12-23T04:29:47.971Z,7.62
2022-12-23T04:32:20.449Z,8.29
2022-12-23T04:34:53.023Z,8.58
2022-12-23T04:37:28.236Z,8.82
2022-12-23T04:40:00.718Z,9.18
2022-12-23T04:42:33.371Z,9.49
2022-12-23T04:45:09.847Z,9.66
2022-12-23T04:47:42.376Z,9.49
2022-12-23T04:50:17.199Z,8.41
2022-12-23T04:52:49.705Z,7.30
2022-12-23T04:55:22.225Z,6.45
2022-12-23T04:57:54.774Z,6.08
2022-12-23T05:00:27.448Z,6.95
2022-12-23T05:03:00.226Z,7.74
2022-12-23T05:05:32.976Z,8.30
2022-12-23T05:08:07.777Z,8.71
2022-12-23T05:10:40.325Z,9.00
2022-12-23T05:13:12.909Z,9.19
2022-12-23T05:15:46.717Z,9.29
2022-12-23T05:18:19.502Z,9.34
2022-12-23T05:20:52.677Z,9.29
2022-12-23T05:23:25.197Z,9.09
2022-12-23T05:25:58.023Z,8.64
2022-12-23T05:28:30.633Z,8.16
2022-12-23T05:31:06.417Z,7.79
2022-12-23T05:33:39.145Z,7.43
2022-12-23T05:36:12.719Z,7.14
2022-12-23T05:38:45.216Z,7.33
2022-12-23T05:41:18.552Z,8.01
2022-12-23T05:43:51.227Z,8.55
2022-12-23T05:46:26.786Z,8.74
2022-12-23T05:48:59.697Z,9.00
2022-12-23T05:51:32.197Z,9.26
2022-12-23T05:54:04.727Z,9.48
2022-12-23T05:56:37.798Z,9.57
2022-12-23T05:59:10.458Z,9.69
2022-12-23T06:01:43.017Z,9.77
2022-12-23T06:04:15.634Z,9.80
2022-12-23T06:06:48.144Z,9.79
2022-12-23T06:09:20.583Z,9.65
2022-12-23T06:11:53.261Z,8.64
2022-12-23T06:14:29.064Z,7.51
2022-12-23T06:17:02.033Z,6.59
2022-12-23T06:19:34.481Z,6.03
2022-12-23T06:22:07.986Z,6.23
2022-12-23T06:24:41.081Z,6.67
2022-12-23T06:27:13.798Z,7.33
2022-12-23T06:29:46.503Z,7.79
2022-12-23T06:32:19.049Z,8.19
2022-12-23T06:34:53.421Z,8.54
2022-12-23T06:37:25.934Z,8.88
2022-12-23T06:39:58.535Z,9.10
2022-12-23T06:42:31.237Z,9.16
2022-12-23T06:45:03.725Z,9.25
2022-12-23T06:47:36.233Z,9.34
2022-12-23T06:50:10.332Z,9.33
2022-12-23T06:52:42.802Z,9.33
2022-12-23T06:55:15.496Z,9.32
2022-12-23T06:57:47.923Z,9.31
2022-12-23T07:00:22.737Z,9.36
2022-12-23T07:02:56.149Z,9.45
2022-12-23T07:05:36.457Z,9.59
2022-12-23T07:08:09.855Z,9.75
2022-12-23T07:10:42.443Z,9.61
2022-12-23T07:13:15.227Z,8.65
2022-12-23T07:15:47.769Z,7.63
2022-12-23T07:18:20.246Z,6.85
2022-12-23T07:20:53.238Z,6.50
2022-12-23T07:23:25.687Z,7.08
2022-12-23T07:25:58.556Z,7.82
2022-12-23T07:28:31.081Z,8.41
2022-12-23T07:31:06.341Z,8.84
2022-12-23T07:33:38.861Z,9.16
2022-12-23T07:36:12.095Z,9.48
2022-12-23T07:38:44.917Z,9.74
2022-12-23T07:41:17.402Z,9.86
2022-12-23T07:43:50.054Z,9.94
2022-12-23T07:46:22.639Z,9.82
2022-12-23T07:48:55.404Z,8.92
2022-12-23T07:51:28.306Z,8.01
2022-12-23T07:54:00.914Z,7.32
2022-12-23T07:56:33.409Z,6.83
2022-12-23T07:59:05.881Z,6.71
2022-12-23T08:01:38.717Z,7.63
2022-12-23T08:04:11.457Z,8.52
2022-12-23T08:06:43.933Z,9.16
2022-12-23T08:09:19.335Z,9.69
2022-12-23T08:11:51.927Z,10.01
2022-12-23T08:14:24.539Z,9.92
2022-12-23T08:16:59.212Z,9.13
2022-12-23T08:19:31.736Z,8.27
2022-12-23T08:22:04.263Z,7.62
2022-12-23T08:24:36.733Z,7.11
2022-12-23T08:27:09.205Z,6.99
2022-12-23T08:29:42.005Z,8.02
2022-12-23T08:32:14.666Z,9.05
2022-12-23T08:34:47.139Z,9.70
2022-12-23T08:37:19.820Z,10.03
2022-12-23T08:39:52.332Z,10.30
2022-12-23T08:42:26.102Z,10.34
2022-12-23T08:44:58.856Z,9.54
2022-12-23T08:47:31.375Z,8.67
2022-12-23T08:50:04.007Z,7.98
2022-12-23T08:52:36.489Z,7.50
2022-12-23T08:55:10.257Z,7.36
2022-12-23T08:57:42.712Z,8.19
2022-12-23T09:00:16.389Z,9.37
2022-12-23T09:02:49.003Z,10.33
2022-12-23T09:05:21.602Z,11.06
2022-12-23T09:07:54.332Z,11.18
2022-12-23T09:10:28.092Z,10.35
2022-12-23T09:13:00.541Z,9.54
2022-12-23T09:15:33.112Z,8.92
2022-12-23T09:18:05.617Z,8.47
2022-12-23T09:20:38.385Z,8.13
2022-12-23T09:23:10.923Z,7.82
2022-12-23T09:25:43.446Z,7.58
2022-12-23T09:28:15.924Z,7.62
2022-12-23T09:30:48.481Z,8.71
2022-12-23T09:33:21.045Z,9.91
2022-12-23T09:35:53.575Z,10.71
2022-12-23T09:38:26.044Z,11.08
2022-12-23T09:41:05.312Z,10.42
2022-12-23T09:43:49.941Z,9.58
2022-12-23T09:46:26.833Z,8.87
2022-12-23T09:49:05.463Z,8.38
2022-12-23T09:51:38.461Z,7.95
2022-12-23T09:54:17.799Z,7.64
2022-12-23T09:56:56.217Z,7.41
2022-12-23T09:59:47.708Z,7.60
2022-12-23T10:02:29.904Z,9.00
2022-12-23T10:05:15.822Z,10.40
2022-12-23T10:07:52.913Z,11.45
2022-12-23T10:10:35.983Z,11.77
2022-12-23T10:13:14.162Z,10.90
2022-12-23T10:15:47.456Z,10.02
2022-12-23T10:18:26.275Z,9.40
2022-12-23T10:21:02.929Z,8.95
2022-12-23T10:23:39.279Z,8.59
2022-12-23T10:26:19.761Z,8.30
2022-12-23T10:28:56.295Z,8.09
2022-12-23T10:31:40.924Z,7.90
2022-12-23T10:34:23.420Z,8.11
2022-12-23T10:37:08.746Z,9.25
2022-12-23T10:39:46.177Z,9.97
2022-12-23T10:42:29.201Z,10.65
2022-12-23T10:45:32.697Z,11.31
2022-12-23T10:48:23.070Z,11.41
2022-12-23T10:51:02.736Z,10.63
2022-12-23T10:53:47.100Z,9.97
2022-12-23T10:56:21.959Z,9.44
2022-12-23T10:58:58.111Z,9.05
2022-12-23T11:01:31.868Z,8.68
2022-12-23T11:04:10.296Z,8.32
2022-12-23T11:06:45.421Z,8.01
2022-12-23T11:09:21.593Z,7.74
2022-12-23T11:11:59.763Z,7.76
2022-12-23T11:14:41.658Z,8.67
2022-12-23T11:17:24.571Z,9.54
2022-12-23T11:20:13.581Z,10.18
2022-12-23T11:22:52.899Z,10.66
2022-12-23T11:25:38.149Z,10.73
2022-12-23T11:28:17.505Z,9.84
2022-12-23T11:30:58.365Z,8.99
2022-12-23T11:33:33.367Z,8.33
2022-12-23T11:36:10.026Z,7.84
2022-12-23T11:38:52.598Z,7.67
2022-12-23T11:41:27.986Z,8.42
2022-12-23T11:44:04.964Z,9.23
2022-12-23T11:46:38.030Z,9.84
2022-12-23T11:49:21.763Z,10.24
2022-12-23T11:52:03.643Z,10.63
2022-12-23T11:54:37.171Z,10.87
2022-12-23T11:57:17.760Z,11.11
2022-12-23T11:59:56.669Z,11.07
2022-12-23T12:02:37.654Z,10.09
2022-12-23T12:05:23.034Z,9.09
2022-12-23T12:07:59.828Z,8.28
2022-12-23T12:10:35.153Z,7.68
2022-12-23T12:13:17.468Z,7.52
2022-12-23T12:15:57.388Z,8.55
2022-12-23T12:18:30.744Z,9.45
2022-12-23T12:21:06.960Z,9.86
2022-12-23T12:23:45.454Z,10.01
2022-12-23T12:26:24.397Z,10.31
2022-12-23T12:29:02.535Z,10.86
2022-12-23T12:31:40.478Z,10.79
2022-12-23T12:34:29.534Z,10.63
2022-12-23T12:37:08.952Z,10.61
2022-12-23T12:39:47.279Z,10.62
2022-12-23T12:42:27.185Z,10.72
2022-12-23T12:45:06.798Z,10.97
2022-12-23T12:47:54.115Z,11.16
2022-12-23T12:50:31.284Z,11.04
2022-12-23T12:53:20.211Z,9.97
2022-12-23T12:55:58.410Z,8.82
2022-12-23T12:58:29.493Z,7.99
2022-12-23T13:01:14.792Z,7.39
2022-12-23T13:04:07.287Z,7.24
2022-12-23T13:06:49.539Z,8.32
2022-12-23T13:09:32.486Z,9.20
2022-12-23T13:12:16.240Z,9.86
2022-12-23T13:15:00.799Z,10.22
2022-12-23T13:17:39.262Z,10.40
2022-12-23T13:20:26.675Z,10.60
2022-12-23T13:23:34.424Z,10.63
2022-12-23T13:26:06.708Z,10.63
2022-12-23T13:28:51.271Z,10.72
2022-12-23T13:31:41.184Z,10.77
2022-12-23T13:34:30.014Z,10.89
2022-12-23T13:37:13.430Z,10.84
2022-12-23T13:39:57.302Z,10.80
2022-12-23T13:42:35.742Z,10.92
2022-12-23T13:45:15.566Z,10.96
2022-12-23T13:48:04.332Z,10.88
2022-12-23T13:50:43.634Z,9.98
2022-12-23T13:53:21.857Z,8.86
2022-12-23T13:56:12.351Z,7.96
2022-12-23T13:58:49.262Z,7.49
2022-12-23T14:01:44.760Z,8.21
2022-12-23T14:04:58.342Z,8.98
2022-12-23T14:07:33.431Z,9.46
2022-12-23T14:10:21.778Z,9.85
2022-12-23T14:13:00.441Z,10.16
2022-12-23T14:15:49.687Z,10.31
2022-12-23T14:18:46.521Z,10.44
2022-12-23T14:21:29.173Z,10.54
2022-12-23T14:24:26.405Z,10.61
2022-12-23T14:27:23.112Z,10.58
2022-12-23T14:30:09.030Z,10.56
2022-12-23T14:32:47.990Z,10.65
2022-12-23T14:35:25.281Z,10.71
2022-12-23T14:38:31.470Z,10.88
2022-12-23T14:41:24.225Z,10.86
2022-12-23T14:44:02.913Z,10.72
2022-12-23T14:46:58.600Z,10.60
2022-12-23T14:49:44.204Z,10.60
2022-12-23T14:52:48.107Z,10.75
2022-12-23T14:55:51.565Z,10.74
2022-12-23T14:58:33.722Z,10.66
2022-12-23T15:01:13.758Z,10.61
2022-12-23T15:03:57.556Z,10.56
2022-12-23T15:06:37.414Z,10.52
2022-12-23T15:09:20.015Z,10.51
2022-12-23T15:11:53.929Z,10.53
2022-12-23T15:14:35.346Z,10.49
2022-12-23T15:17:25.634Z,10.50
2022-12-23T15:20:09.391Z,10.46
2022-12-23T15:22:43.354Z,10.49
2022-12-23T15:25:27.703Z,10.58
2022-12-23T15:28:02.688Z,10.69
2022-12-23T15:30:47.343Z,10.73
2022-12-23T15:36:23.169Z,10.79
2022-12-23T15:38:55.946Z,10.66
2022-12-23T15:41:29.130Z,10.42
2022-12-23T15:44:02.489Z,10.45
2022-12-23T15:46:40.202Z,10.47
2022-12-23T15:49:14.613Z,10.44
2022-12-23T15:54:47.089Z,10.39
2022-12-23T15:57:23.989Z,10.33
2022-12-23T15:59:57.167Z,10.28
2022-12-23T16:05:32.014Z,10.59
2022-12-23T16:08:30.310Z,10.80
2022-12-23T16:11:13.981Z,10.70
2022-12-23T16:13:58.684Z,10.58
2022-12-23T16:16:38.793Z,10.29
2022-12-23T16:19:40.818Z,10.33
2022-12-23T16:22:29.595Z,10.63
2022-12-23T16:25:10.582Z,10.71
2022-12-23T16:27:45.328Z,10.49
2022-12-23T16:30:21.680Z,10.50
2022-12-23T16:32:56.682Z,10.76
2022-12-23T16:35:41.145Z,10.75
2022-12-23T16:38:17.389Z,10.99
2022-12-23T16:40:52.623Z,11.12
2022-12-23T16:43:26.110Z,11.22
2022-12-23T16:46:00.130Z,11.17
2022-12-23T16:48:36.631Z,10.59
2022-12-23T16:51:14.493Z,9.41
2022-12-23T16:53:47.296Z,8.34
2022-12-23T16:56:22.156Z,7.68
2022-12-23T16:58:54.859Z,7.84
2022-12-23T17:01:30.981Z,8.66
2022-12-23T17:04:03.911Z,9.25
2022-12-23T17:06:37.408Z,9.31
2022-12-23T17:09:11.765Z,9.60
2022-12-23T17:11:47.547Z,10.06
2022-12-23T17:14:22.081Z,10.17
2022-12-23T17:16:55.011Z,10.32
2022-12-23T17:19:29.346Z,10.43
2022-12-23T17:22:04.718Z,10.48
2022-12-23T17:24:37.585Z,10.47
2022-12-23T17:27:15.831Z,10.54
2022-12-23T17:29:48.370Z,10.64
2022-12-23T17:32:22.760Z,10.68
2022-12-23T17:34:56.979Z,10.72
2022-12-23T17:37:33.845Z,10.68
2022-12-23T17:40:07.537Z,10.68
2022-12-23T17:42:40.558Z,10.76
2022-12-23T17:45:25.335Z,10.75
2022-12-23T17:47:58.124Z,10.73
2022-12-23T17:50:31.563Z,10.80
2022-12-23T17:53:04.385Z,10.83
2022-12-23T17:55:37.224Z,10.85
2022-12-23T17:58:10.217Z,10.90
2022-12-23T18:00:43.148Z,10.91
2022-12-23T18:03:24.674Z,10.92
2022-12-23T18:06:02.046Z,10.60
2022-12-23T18:08:35.139Z,9.55
2022-12-23T18:11:08.682Z,8.51
2022-12-23T18:13:41.531Z,7.94
2022-12-23T18:16:15.333Z,8.58
2022-12-23T18:18:47.967Z,8.96
2022-12-23T18:21:24.903Z,8.90
2022-12-23T18:24:00.878Z,9.05
2022-12-23T18:26:33.520Z,9.46
2022-12-23T18:29:06.317Z,9.75
2022-12-23T18:31:50.026Z,9.91
2022-12-23T18:34:23.936Z,10.04
2022-12-23T18:36:56.446Z,10.18
2022-12-23T18:39:29.323Z,10.23
2022-12-23T18:42:02.449Z,10.30
2022-12-23T18:44:35.240Z,10.18
2022-12-23T18:47:08.141Z,9.89
2022-12-23T18:49:41.179Z,9.56
2022-12-23T18:52:15.077Z,9.30
2022-12-23T18:54:47.900Z,9.34
2022-12-23T18:57:23.356Z,9.68
2022-12-23T18:59:56.103Z,9.86
2022-12-23T19:02:29.380Z,10.04
2022-12-23T19:05:02.141Z,10.18
2022-12-23T19:07:34.751Z,10.22
2022-12-23T19:10:10.726Z,10.25
2022-12-23T19:12:43.411Z,10.19
2022-12-23T19:15:17.556Z,10.15
2022-12-23T19:17:51.125Z,10.23
2022-12-23T19:20:24.129Z,10.43
2022-12-23T19:22:57.010Z,10.81
2022-12-23T19:25:30.289Z,10.87
2022-12-23T19:28:03.261Z,10.63
2022-12-23T19:30:37.367Z,10.34
2022-12-23T19:33:10.325Z,10.43
2022-12-23T19:35:45.418Z,10.39
2022-12-23T19:38:18.288Z,10.21
2022-12-23T19:40:59.327Z,10.17
2022-12-23T19:43:32.419Z,9.97
2022-12-23T19:46:09.071Z,9.67
2022-12-23T19:48:41.867Z,9.37
2022-12-23T19:51:16.957Z,9.15
2022-12-23T19:53:53.080Z,9.03
2022-12-23T19:56:26.371Z,8.92
2022-12-23T19:58:58.988Z,8.80
2022-12-23T20:01:31.902Z,8.63
2022-12-23T20:04:04.706Z,8.49
2022-12-23T20:06:38.564Z,8.42
2022-12-23T20:09:13.412Z,8.35
2022-12-23T20:11:47.494Z,8.30
2022-12-23T20:14:21.952Z,8.28
2022-12-23T20:16:54.955Z,8.23
2022-12-23T20:19:28.069Z,8.77
2022-12-23T20:22:00.877Z,9.70
2022-12-23T20:24:37.200Z,10.41
2022-12-23T20:27:12.576Z,10.95
2022-12-23T20:29:46.060Z,11.21
2022-12-23T20:32:18.756Z,11.15
2022-12-23T20:34:51.498Z,11.08
2022-12-23T20:37:24.347Z,10.91
2022-12-23T20:39:57.135Z,10.84
2022-12-23T20:42:29.683Z,10.53
2022-12-23T20:45:02.335Z,10.43
2022-12-23T20:47:35.322Z,10.33
2022-12-23T20:50:11.014Z,10.68
2022-12-23T20:52:43.805Z,11.11
2022-12-23T20:55:16.685Z,11.37
2022-12-23T20:57:49.500Z,11.44
2022-12-23T21:00:22.922Z,11.18
2022-12-23T21:02:56.880Z,11.20
2022-12-23T21:05:29.951Z,11.33
2022-12-23T21:08:02.997Z,11.51
2022-12-23T21:10:36.426Z,11.56
2022-12-23T21:13:09.143Z,11.41
2022-12-23T21:15:41.916Z,10.44
2022-12-23T21:18:16.793Z,9.38
2022-12-23T21:20:49.340Z,8.49
2022-12-23T21:23:22.145Z,8.08
2022-12-23T21:26:04.854Z,8.70
2022-12-23T21:28:37.787Z,9.55
2022-12-23T21:31:11.884Z,10.12
2022-12-23T21:33:47.086Z,10.30
2022-12-23T21:36:21.799Z,10.26
2022-12-23T21:38:54.902Z,10.50
2022-12-23T21:41:30.038Z,10.72
2022-12-23T21:44:04.505Z,10.91
2022-12-23T21:46:37.174Z,10.98
2022-12-23T21:49:10.919Z,11.10
2022-12-23T21:51:43.988Z,11.40
2022-12-23T21:54:20.859Z,11.51
2022-12-23T21:56:53.497Z,11.75
2022-12-23T21:59:32.827Z,11.71
2022-12-23T22:02:08.162Z,10.61
2022-12-23T22:04:40.936Z,9.53
2022-12-23T22:07:13.586Z,8.68
2022-12-23T22:09:46.241Z,8.28
2022-12-23T22:12:18.990Z,9.26
2022-12-23T22:14:52.812Z,10.12
2022-12-23T22:17:25.761Z,10.46
2022-12-23T22:19:58.377Z,10.87
2022-12-23T22:22:30.874Z,11.25
2022-12-23T22:25:03.383Z,11.55
2022-12-23T22:27:35.871Z,11.82
2022-12-23T22:30:10.328Z,11.78
2022-12-23T22:32:43.051Z,10.74
2022-12-23T22:35:15.863Z,9.63
2022-12-23T22:37:48.339Z,8.72
2022-12-23T22:40:21.227Z,8.17
2022-12-23T22:42:54.314Z,8.87
2022-12-23T22:45:27.690Z,9.81
2022-12-23T22:48:00.442Z,10.42
2022-12-23T22:51:57.271Z,10.85
2022-12-23T22:54:30.151Z,11.07
2022-12-23T22:57:03.117Z,11.42
2022-12-23T22:59:36.048Z,11.76
2022-12-23T23:02:09.157Z,11.66
2022-12-23T23:04:42.758Z,10.59
2022-12-23T23:07:15.574Z,9.46
2022-12-23T23:09:48.816Z,8.60
2022-12-23T23:12:21.558Z,8.22
2022-12-23T23:14:54.429Z,9.24
2022-12-23T23:17:28.662Z,10.22
2022-12-23T23:20:01.507Z,10.85
2022-12-23T23:22:34.810Z,11.29
2022-12-23T23:25:08.788Z,11.55
2022-12-23T23:27:41.878Z,11.47
2022-12-23T23:30:15.610Z,10.55
2022-12-23T23:32:48.616Z,9.50
2022-12-23T23:35:22.672Z,8.70
2022-12-23T23:37:57.403Z,8.37
2022-12-23T23:40:30.509Z,9.36
2022-12-23T23:48:06.672Z,11.85
2022-12-23T23:50:39.607Z,12.00
2022-12-23T23:53:13.059Z,10.97
2022-12-23T23:55:46.124Z,9.84
2022-12-23T23:58:19.225Z,8.93
